sensor_id;sensor_type;location;lat;lon;timestamp;P1;durP1;ratioP1;P2;durP2;ratioP2
61642;SDS011;47551;52.506;4.678;2024-01-15T00:00:16;8.77;;;1.70;;
61642;SDS011;47551;52.506;4.678;2024-01-15T00:00:37;10.00;;;1.60;;
61642;SDS011;47551;52.506;4.678;2024-01-15T00:00:57;10.33;;;1.70;;
61642;SDS011;47551;52.506;4.678;2024-01-15T00:01:17;12.07;;;1.80;;
61642;SDS011;47551;52.506;4.678;2024-01-15T00:01:41;11.20;;;1.73;;
61642;SDS011;47551;52.506;4.678;2024-01-15T00:02:02;10.27;;;1.55;;
61642;SDS011;47551;52.506;4.678;2024-01-15T00:02:23;10.07;;;1.65;;
61642;SDS011;47551;52.506;4.678;2024-01-15T00:02:43;10.20;;;1.70;;
61642;SDS011;47551;52.506;4.678;2024-01-15T00:03:03;8.53;;;1.50;;
61642;SDS011;47551;52.506;4.678;2024-01-15T00:03:23;10.52;;;1.77;;
61642;SDS011;47551;52.506;4.678;2024-01-15T00:03:43;10.87;;;1.80;;
61642;SDS011;47551;52.506;4.678;2024-01-15T00:04:04;11.63;;;1.67;;
61642;SDS011;47551;52.506;4.678;2024-01-15T00:04:24;9.80;;;1.50;;
61642;SDS011;47551;52.506;4.678;2024-01-15T00:04:44;7.87;;;1.33;;
61642;SDS011;47551;52.506;4.678;2024-01-15T00:05:04;9.93;;;1.40;;
61642;SDS011;47551;52.506;4.678;2024-01-15T00:05:24;10.27;;;1.50;;
61642;SDS011;47551;52.506;4.678;2024-01-15T00:05:45;8.83;;;1.53;;
61642;SDS011;47551;52.506;4.678;2024-01-15T00:06:05;9.53;;;1.50;;
61642;SDS011;47551;52.506;4.678;2024-01-15T00:06:25;8.83;;;1.30;;
61642;SDS011;47551;52.506;4.678;2024-01-15T00:06:47;8.63;;;1.40;;
61642;SDS011;47551;52.506;4.678;2024-01-15T00:07:07;8.40;;;1.55;;
61642;SDS011;47551;52.506;4.678;2024-01-15T00:07:27;9.33;;;1.63;;
61642;SDS011;47551;52.506;4.678;2024-01-15T00:07:50;9.52;;;1.70;;
61642;SDS011;47551;52.506;4.678;2024-01-15T00:08:10;11.70;;;1.70;;
61642;SDS011;47551;52.506;4.678;2024-01-15T00:08:30;11.13;;;1.77;;
61642;SDS011;47551;52.506;4.678;2024-01-15T00:08:50;10.50;;;2.20;;
61642;SDS011;47551;52.506;4.678;2024-01-15T00:09:13;10.02;;;1.90;;
61642;SDS011;47551;52.506;4.678;2024-01-15T00:09:34;7.30;;;1.33;;
61642;SDS011;47551;52.506;4.678;2024-01-15T00:09:57;8.05;;;1.60;;
61642;SDS011;47551;52.506;4.678;2024-01-15T00:10:19;10.52;;;1.73;;
61642;SDS011;47551;52.506;4.678;2024-01-15T00:10:40;10.30;;;1.60;;
61642;SDS011;47551;52.506;4.678;2024-01-15T00:11:01;9.90;;;1.90;;
61642;SDS011;47551;52.506;4.678;2024-01-15T00:11:21;11.52;;;1.80;;
61642;SDS011;47551;52.506;4.678;2024-01-15T00:11:44;9.57;;;1.80;;
61642;SDS011;47551;52.506;4.678;2024-01-15T00:12:05;11.93;;;2.40;;
61642;SDS011;47551;52.506;4.678;2024-01-15T00:12:25;10.65;;;2.50;;
61642;SDS011;47551;52.506;4.678;2024-01-15T00:12:45;10.30;;;1.97;;
61642;SDS011;47551;52.506;4.678;2024-01-15T00:13:05;10.67;;;2.07;;
61642;SDS011;47551;52.506;4.678;2024-01-15T00:13:26;10.45;;;2.20;;
61642;SDS011;47551;52.506;4.678;2024-01-15T00:13:49;11.30;;;2.25;;
61642;SDS011;47551;52.506;4.678;2024-01-15T00:14:12;11.40;;;1.95;;
61642;SDS011;47551;52.506;4.678;2024-01-15T00:14:37;12.30;;;2.30;;
61642;SDS011;47551;52.506;4.678;2024-01-15T00:14:57;11.85;;;2.00;;
61642;SDS011;47551;52.506;4.678;2024-01-15T00:15:26;10.80;;;1.93;;
61642;SDS011;47551;52.506;4.678;2024-01-15T00:15:48;11.85;;;1.88;;
61642;SDS011;47551;52.506;4.678;2024-01-15T00:16:11;14.73;;;1.93;;
61642;SDS011;47551;52.506;4.678;2024-01-15T00:16:32;11.35;;;1.73;;
61642;SDS011;47551;52.506;4.678;2024-01-15T00:16:52;12.07;;;1.60;;
61642;SDS011;47551;52.506;4.678;2024-01-15T00:17:14;8.63;;;1.45;;
61642;SDS011;47551;52.506;4.678;2024-01-15T00:17:38;8.18;;;1.83;;
61642;SDS011;47551;52.506;4.678;2024-01-15T00:17:58;8.82;;;1.55;;
61642;SDS011;47551;52.506;4.678;2024-01-15T00:18:18;7.30;;;1.10;;
61642;SDS011;47551;52.506;4.678;2024-01-15T00:18:39;8.20;;;1.30;;
61642;SDS011;47551;52.506;4.678;2024-01-15T00:18:59;9.43;;;1.58;;
61642;SDS011;47551;52.506;4.678;2024-01-15T00:19:19;8.97;;;1.33;;
61642;SDS011;47551;52.506;4.678;2024-01-15T00:19:43;7.53;;;1.17;;
61642;SDS011;47551;52.506;4.678;2024-01-15T00:20:04;7.38;;;1.20;;
61642;SDS011;47551;52.506;4.678;2024-01-15T00:20:24;8.83;;;1.27;;
61642;SDS011;47551;52.506;4.678;2024-01-15T00:20:44;5.88;;;0.95;;
61642;SDS011;47551;52.506;4.678;2024-01-15T00:21:07;5.40;;;0.80;;
61642;SDS011;47551;52.506;4.678;2024-01-15T00:21:27;6.07;;;0.70;;
61642;SDS011;47551;52.506;4.678;2024-01-15T00:21:48;4.87;;;0.70;;
61642;SDS011;47551;52.506;4.678;2024-01-15T00:22:11;4.93;;;0.70;;
61642;SDS011;47551;52.506;4.678;2024-01-15T00:22:34;6.13;;;0.70;;
61642;SDS011;47551;52.506;4.678;2024-01-15T00:22:55;4.93;;;0.60;;
61642;SDS011;47551;52.506;4.678;2024-01-15T00:23:15;4.80;;;0.60;;
61642;SDS011;47551;52.506;4.678;2024-01-15T00:23:35;3.23;;;0.40;;
61642;SDS011;47551;52.506;4.678;2024-01-15T00:23:56;3.43;;;0.50;;
61642;SDS011;47551;52.506;4.678;2024-01-15T00:24:16;3.17;;;0.40;;
61642;SDS011;47551;52.506;4.678;2024-01-15T00:24:36;3.93;;;0.70;;
61642;SDS011;47551;52.506;4.678;2024-01-15T00:24:59;4.68;;;0.63;;
61642;SDS011;47551;52.506;4.678;2024-01-15T00:25:19;3.90;;;0.47;;
61642;SDS011;47551;52.506;4.678;2024-01-15T00:25:45;3.40;;;0.35;;
61642;SDS011;47551;52.506;4.678;2024-01-15T00:26:06;2.93;;;0.30;;
61642;SDS011;47551;52.506;4.678;2024-01-15T00:26:26;3.73;;;0.30;;
61642;SDS011;47551;52.506;4.678;2024-01-15T00:26:46;5.03;;;0.40;;
61642;SDS011;47551;52.506;4.678;2024-01-15T00:27:06;4.47;;;0.40;;
61642;SDS011;47551;52.506;4.678;2024-01-15T00:27:26;3.07;;;0.43;;
61642;SDS011;47551;52.506;4.678;2024-01-15T00:27:47;3.03;;;0.40;;
61642;SDS011;47551;52.506;4.678;2024-01-15T00:28:08;3.63;;;0.50;;
61642;SDS011;47551;52.506;4.678;2024-01-15T00:28:28;3.60;;;0.40;;
61642;SDS011;47551;52.506;4.678;2024-01-15T00:28:48;3.83;;;0.50;;
61642;SDS011;47551;52.506;4.678;2024-01-15T00:29:08;2.67;;;0.43;;
61642;SDS011;47551;52.506;4.678;2024-01-15T00:29:29;2.55;;;0.30;;
61642;SDS011;47551;52.506;4.678;2024-01-15T00:29:49;2.67;;;0.23;;
61642;SDS011;47551;52.506;4.678;2024-01-15T00:30:11;2.95;;;0.30;;
61642;SDS011;47551;52.506;4.678;2024-01-15T00:30:31;2.65;;;0.30;;
61642;SDS011;47551;52.506;4.678;2024-01-15T00:30:52;2.27;;;0.37;;
61642;SDS011;47551;52.506;4.678;2024-01-15T00:31:18;2.88;;;0.43;;
61642;SDS011;47551;52.506;4.678;2024-01-15T00:31:38;2.65;;;0.40;;
61642;SDS011;47551;52.506;4.678;2024-01-15T00:31:58;3.97;;;0.38;;
61642;SDS011;47551;52.506;4.678;2024-01-15T00:32:18;2.27;;;0.30;;
61642;SDS011;47551;52.506;4.678;2024-01-15T00:32:39;3.35;;;0.40;;
61642;SDS011;47551;52.506;4.678;2024-01-15T00:33:00;2.30;;;0.40;;
61642;SDS011;47551;52.506;4.678;2024-01-15T00:33:20;2.27;;;0.30;;
61642;SDS011;47551;52.506;4.678;2024-01-15T00:33:40;2.67;;;0.30;;
61642;SDS011;47551;52.506;4.678;2024-01-15T00:34:00;3.13;;;0.40;;
61642;SDS011;47551;52.506;4.678;2024-01-15T00:34:21;3.27;;;0.50;;
61642;SDS011;47551;52.506;4.678;2024-01-15T00:34:43;3.47;;;0.30;;
61642;SDS011;47551;52.506;4.678;2024-01-15T00:35:04;3.07;;;0.30;;
61642;SDS011;47551;52.506;4.678;2024-01-15T00:35:27;3.35;;;0.20;;
61642;SDS011;47551;52.506;4.678;2024-01-15T00:35:50;3.08;;;0.30;;
61642;SDS011;47551;52.506;4.678;2024-01-15T00:36:10;3.15;;;0.35;;
61642;SDS011;47551;52.506;4.678;2024-01-15T00:36:31;3.47;;;0.50;;
61642;SDS011;47551;52.506;4.678;2024-01-15T00:36:51;2.60;;;0.40;;
61642;SDS011;47551;52.506;4.678;2024-01-15T00:37:11;3.17;;;0.30;;
61642;SDS011;47551;52.506;4.678;2024-01-15T00:37:34;3.97;;;0.50;;
61642;SDS011;47551;52.506;4.678;2024-01-15T00:37:54;3.97;;;0.52;;
61642;SDS011;47551;52.506;4.678;2024-01-15T00:38:14;4.40;;;0.60;;
61642;SDS011;47551;52.506;4.678;2024-01-15T00:38:37;4.50;;;0.50;;
61642;SDS011;47551;52.506;4.678;2024-01-15T00:38:58;4.47;;;0.57;;
61642;SDS011;47551;52.506;4.678;2024-01-15T00:39:18;4.60;;;0.80;;
61642;SDS011;47551;52.506;4.678;2024-01-15T00:39:38;5.15;;;0.90;;
61642;SDS011;47551;52.506;4.678;2024-01-15T00:39:58;5.07;;;0.80;;
61642;SDS011;47551;52.506;4.678;2024-01-15T00:40:18;7.93;;;1.03;;
61642;SDS011;47551;52.506;4.678;2024-01-15T00:40:39;7.03;;;1.10;;
61642;SDS011;47551;52.506;4.678;2024-01-15T00:40:59;6.60;;;1.10;;
61642;SDS011;47551;52.506;4.678;2024-01-15T00:41:19;6.80;;;0.80;;
61642;SDS011;47551;52.506;4.678;2024-01-15T00:41:40;6.38;;;0.88;;
61642;SDS011;47551;52.506;4.678;2024-01-15T00:42:00;6.07;;;0.77;;
61642;SDS011;47551;52.506;4.678;2024-01-15T00:42:20;4.60;;;0.80;;
61642;SDS011;47551;52.506;4.678;2024-01-15T00:42:40;4.87;;;0.87;;
61642;SDS011;47551;52.506;4.678;2024-01-15T00:43:00;5.72;;;0.90;;
61642;SDS011;47551;52.506;4.678;2024-01-15T00:43:22;6.93;;;1.02;;
61642;SDS011;47551;52.506;4.678;2024-01-15T00:43:45;6.70;;;1.08;;
61642;SDS011;47551;52.506;4.678;2024-01-15T00:44:05;6.65;;;1.17;;
61642;SDS011;47551;52.506;4.678;2024-01-15T00:44:27;7.35;;;1.38;;
61642;SDS011;47551;52.506;4.678;2024-01-15T00:44:47;8.63;;;1.40;;
61642;SDS011;47551;52.506;4.678;2024-01-15T00:45:07;8.05;;;1.10;;
61642;SDS011;47551;52.506;4.678;2024-01-15T00:45:30;8.20;;;1.27;;
61642;SDS011;47551;52.506;4.678;2024-01-15T00:45:51;8.57;;;1.10;;
61642;SDS011;47551;52.506;4.678;2024-01-15T00:46:11;6.88;;;0.90;;
61642;SDS011;47551;52.506;4.678;2024-01-15T00:46:31;7.87;;;1.13;;
61642;SDS011;47551;52.506;4.678;2024-01-15T00:46:51;7.80;;;1.30;;
61642;SDS011;47551;52.506;4.678;2024-01-15T00:47:11;7.73;;;1.40;;
61642;SDS011;47551;52.506;4.678;2024-01-15T00:47:32;8.20;;;1.40;;
61642;SDS011;47551;52.506;4.678;2024-01-15T00:47:55;8.93;;;1.45;;
61642;SDS011;47551;52.506;4.678;2024-01-15T00:48:16;8.38;;;1.40;;
61642;SDS011;47551;52.506;4.678;2024-01-15T00:48:36;6.97;;;1.17;;
61642;SDS011;47551;52.506;4.678;2024-01-15T00:48:57;8.30;;;1.43;;
61642;SDS011;47551;52.506;4.678;2024-01-15T00:49:17;10.43;;;1.77;;
61642;SDS011;47551;52.506;4.678;2024-01-15T00:49:37;10.73;;;1.45;;
61642;SDS011;47551;52.506;4.678;2024-01-15T00:49:58;11.73;;;1.60;;
61642;SDS011;47551;52.506;4.678;2024-01-15T00:50:18;9.63;;;1.50;;
61642;SDS011;47551;52.506;4.678;2024-01-15T00:50:38;12.52;;;1.75;;
61642;SDS011;47551;52.506;4.678;2024-01-15T00:50:58;8.20;;;1.50;;
61642;SDS011;47551;52.506;4.678;2024-01-15T00:51:18;8.73;;;1.23;;
61642;SDS011;47551;52.506;4.678;2024-01-15T00:51:39;10.50;;;1.57;;
61642;SDS011;47551;52.506;4.678;2024-01-15T00:51:59;8.02;;;1.50;;
61642;SDS011;47551;52.506;4.678;2024-01-15T00:52:19;9.37;;;1.40;;
61642;SDS011;47551;52.506;4.678;2024-01-15T00:52:39;10.03;;;1.47;;
61642;SDS011;47551;52.506;4.678;2024-01-15T00:53:00;9.00;;;1.50;;
61642;SDS011;47551;52.506;4.678;2024-01-15T00:53:23;9.17;;;1.37;;
61642;SDS011;47551;52.506;4.678;2024-01-15T00:53:43;9.15;;;1.70;;
61642;SDS011;47551;52.506;4.678;2024-01-15T00:54:03;12.95;;;2.10;;
61642;SDS011;47551;52.506;4.678;2024-01-15T00:54:24;12.07;;;1.90;;
61642;SDS011;47551;52.506;4.678;2024-01-15T00:54:44;8.77;;;1.50;;
61642;SDS011;47551;52.506;4.678;2024-01-15T00:55:04;8.47;;;1.50;;
61642;SDS011;47551;52.506;4.678;2024-01-15T00:55:24;12.25;;;1.60;;
61642;SDS011;47551;52.506;4.678;2024-01-15T00:55:45;9.63;;;1.60;;
61642;SDS011;47551;52.506;4.678;2024-01-15T00:56:08;12.63;;;1.90;;
61642;SDS011;47551;52.506;4.678;2024-01-15T00:56:28;12.20;;;1.63;;
61642;SDS011;47551;52.506;4.678;2024-01-15T00:56:48;7.88;;;1.60;;
61642;SDS011;47551;52.506;4.678;2024-01-15T00:57:11;9.98;;;1.73;;
61642;SDS011;47551;52.506;4.678;2024-01-15T00:57:31;10.23;;;1.60;;
61642;SDS011;47551;52.506;4.678;2024-01-15T00:57:54;10.80;;;2.05;;
61642;SDS011;47551;52.506;4.678;2024-01-15T00:58:14;11.57;;;2.17;;
61642;SDS011;47551;52.506;4.678;2024-01-15T00:58:35;11.43;;;1.70;;
61642;SDS011;47551;52.506;4.678;2024-01-15T00:58:56;10.52;;;1.80;;
61642;SDS011;47551;52.506;4.678;2024-01-15T00:59:16;10.47;;;1.77;;
61642;SDS011;47551;52.506;4.678;2024-01-15T00:59:37;10.95;;;1.80;;
61642;SDS011;47551;52.506;4.678;2024-01-15T00:59:57;11.35;;;1.85;;
61642;SDS011;47551;52.506;4.678;2024-01-15T01:00:18;10.37;;;1.93;;
61642;SDS011;47551;52.506;4.678;2024-01-15T01:00:38;10.77;;;1.80;;
61642;SDS011;47551;52.506;4.678;2024-01-15T01:00:58;11.17;;;1.90;;
61642;SDS011;47551;52.506;4.678;2024-01-15T01:01:21;10.40;;;1.77;;
61642;SDS011;47551;52.506;4.678;2024-01-15T01:01:42;10.73;;;1.73;;
61642;SDS011;47551;52.506;4.678;2024-01-15T01:02:03;9.45;;;1.42;;
61642;SDS011;47551;52.506;4.678;2024-01-15T01:02:23;9.83;;;1.63;;
61642;SDS011;47551;52.506;4.678;2024-01-15T01:02:43;9.40;;;1.90;;
61642;SDS011;47551;52.506;4.678;2024-01-15T01:03:03;9.10;;;1.70;;
61642;SDS011;47551;52.506;4.678;2024-01-15T01:03:23;9.50;;;1.60;;
61642;SDS011;47551;52.506;4.678;2024-01-15T01:03:44;9.90;;;1.90;;
61642;SDS011;47551;52.506;4.678;2024-01-15T01:04:10;10.73;;;1.67;;
61642;SDS011;47551;52.506;4.678;2024-01-15T01:04:30;10.30;;;1.83;;
61642;SDS011;47551;52.506;4.678;2024-01-15T01:04:50;12.17;;;2.27;;
61642;SDS011;47551;52.506;4.678;2024-01-15T01:05:11;12.95;;;2.20;;
61642;SDS011;47551;52.506;4.678;2024-01-15T01:05:31;10.73;;;1.97;;
61642;SDS011;47551;52.506;4.678;2024-01-15T01:05:51;11.33;;;1.60;;
61642;SDS011;47551;52.506;4.678;2024-01-15T01:06:11;10.17;;;1.90;;
61642;SDS011;47551;52.506;4.678;2024-01-15T01:06:31;8.80;;;1.75;;
61642;SDS011;47551;52.506;4.678;2024-01-15T01:06:54;10.20;;;1.75;;
61642;SDS011;47551;52.506;4.678;2024-01-15T01:07:15;10.67;;;2.07;;
61642;SDS011;47551;52.506;4.678;2024-01-15T01:07:35;13.93;;;2.20;;
61642;SDS011;47551;52.506;4.678;2024-01-15T01:07:55;13.65;;;2.20;;
61642;SDS011;47551;52.506;4.678;2024-01-15T01:08:16;10.60;;;2.00;;
61642;SDS011;47551;52.506;4.678;2024-01-15T01:08:36;7.87;;;1.43;;
61642;SDS011;47551;52.506;4.678;2024-01-15T01:08:59;7.22;;;1.35;;
61642;SDS011;47551;52.506;4.678;2024-01-15T01:09:25;10.70;;;1.75;;
61642;SDS011;47551;52.506;4.678;2024-01-15T01:09:45;11.23;;;1.50;;
61642;SDS011;47551;52.506;4.678;2024-01-15T01:10:06;10.27;;;1.40;;
61642;SDS011;47551;52.506;4.678;2024-01-15T01:10:29;8.73;;;1.50;;
61642;SDS011;47551;52.506;4.678;2024-01-15T01:10:50;8.80;;;1.35;;
61642;SDS011;47551;52.506;4.678;2024-01-15T01:11:14;8.17;;;1.40;;
61642;SDS011;47551;52.506;4.678;2024-01-15T01:11:34;9.77;;;1.40;;
61642;SDS011;47551;52.506;4.678;2024-01-15T01:11:54;9.50;;;1.43;;
61642;SDS011;47551;52.506;4.678;2024-01-15T01:12:14;8.07;;;1.30;;
61642;SDS011;47551;52.506;4.678;2024-01-15T01:12:34;9.70;;;1.37;;
61642;SDS011;47551;52.506;4.678;2024-01-15T01:12:55;9.53;;;1.43;;
61642;SDS011;47551;52.506;4.678;2024-01-15T01:13:15;7.73;;;1.27;;
61642;SDS011;47551;52.506;4.678;2024-01-15T01:13:35;8.50;;;1.63;;
61642;SDS011;47551;52.506;4.678;2024-01-15T01:13:55;7.47;;;1.53;;
61642;SDS011;47551;52.506;4.678;2024-01-15T01:14:19;7.55;;;1.30;;
61642;SDS011;47551;52.506;4.678;2024-01-15T01:14:39;8.02;;;1.13;;
61642;SDS011;47551;52.506;4.678;2024-01-15T01:15:02;8.15;;;1.23;;
61642;SDS011;47551;52.506;4.678;2024-01-15T01:15:25;7.83;;;1.17;;
61642;SDS011;47551;52.506;4.678;2024-01-15T01:15:49;6.70;;;1.30;;
61642;SDS011;47551;52.506;4.678;2024-01-15T01:16:09;8.05;;;1.40;;
61642;SDS011;47551;52.506;4.678;2024-01-15T01:16:29;6.40;;;1.13;;
61642;SDS011;47551;52.506;4.678;2024-01-15T01:16:50;7.72;;;1.35;;
61642;SDS011;47551;52.506;4.678;2024-01-15T01:17:11;7.97;;;1.07;;
61642;SDS011;47551;52.506;4.678;2024-01-15T01:17:31;6.63;;;1.13;;
61642;SDS011;47551;52.506;4.678;2024-01-15T01:17:54;7.03;;;1.00;;
61642;SDS011;47551;52.506;4.678;2024-01-15T01:18:14;7.43;;;1.30;;
61642;SDS011;47551;52.506;4.678;2024-01-15T01:18:34;8.55;;;1.17;;
61642;SDS011;47551;52.506;4.678;2024-01-15T01:18:54;7.80;;;1.47;;
61642;SDS011;47551;52.506;4.678;2024-01-15T01:19:15;8.87;;;1.37;;
61642;SDS011;47551;52.506;4.678;2024-01-15T01:19:35;8.57;;;1.27;;
61642;SDS011;47551;52.506;4.678;2024-01-15T01:19:55;6.60;;;1.00;;
61642;SDS011;47551;52.506;4.678;2024-01-15T01:20:15;6.60;;;0.83;;
61642;SDS011;47551;52.506;4.678;2024-01-15T01:20:35;8.47;;;1.10;;
61642;SDS011;47551;52.506;4.678;2024-01-15T01:20:57;7.38;;;1.23;;
61642;SDS011;47551;52.506;4.678;2024-01-15T01:21:38;5.97;;;1.03;;
61642;SDS011;47551;52.506;4.678;2024-01-15T01:21:57;8.38;;;1.40;;
61642;SDS011;47551;52.506;4.678;2024-01-15T01:22:18;7.13;;;1.13;;
61642;SDS011;47551;52.506;4.678;2024-01-15T01:22:38;6.43;;;1.00;;
61642;SDS011;47551;52.506;4.678;2024-01-15T01:22:58;7.97;;;1.20;;
61642;SDS011;47551;52.506;4.678;2024-01-15T01:23:19;7.07;;;0.98;;
61642;SDS011;47551;52.506;4.678;2024-01-15T01:23:42;5.87;;;0.70;;
61642;SDS011;47551;52.506;4.678;2024-01-15T01:24:08;5.47;;;0.60;;
61642;SDS011;47551;52.506;4.678;2024-01-15T01:24:28;5.88;;;0.80;;
61642;SDS011;47551;52.506;4.678;2024-01-15T01:24:49;6.23;;;0.67;;
61642;SDS011;47551;52.506;4.678;2024-01-15T01:25:09;4.63;;;0.50;;
61642;SDS011;47551;52.506;4.678;2024-01-15T01:25:29;3.93;;;0.60;;
61642;SDS011;47551;52.506;4.678;2024-01-15T01:25:49;6.50;;;0.90;;
61642;SDS011;47551;52.506;4.678;2024-01-15T01:26:09;5.90;;;0.70;;
61642;SDS011;47551;52.506;4.678;2024-01-15T01:26:30;3.13;;;0.50;;
61642;SDS011;47551;52.506;4.678;2024-01-15T01:26:50;3.85;;;0.65;;
61642;SDS011;47551;52.506;4.678;2024-01-15T01:27:10;5.53;;;0.70;;
61642;SDS011;47551;52.506;4.678;2024-01-15T01:27:33;4.50;;;0.67;;
61642;SDS011;47551;52.506;4.678;2024-01-15T01:27:53;5.43;;;0.88;;
61642;SDS011;47551;52.506;4.678;2024-01-15T01:28:16;4.18;;;0.60;;
61642;SDS011;47551;52.506;4.678;2024-01-15T01:28:36;4.60;;;0.80;;
61642;SDS011;47551;52.506;4.678;2024-01-15T01:28:57;5.30;;;0.87;;
61642;SDS011;47551;52.506;4.678;2024-01-15T01:29:19;4.82;;;0.70;;
61642;SDS011;47551;52.506;4.678;2024-01-15T01:29:40;4.57;;;0.70;;
61642;SDS011;47551;52.506;4.678;2024-01-15T01:30:00;3.40;;;0.70;;
61642;SDS011;47551;52.506;4.678;2024-01-15T01:30:29;4.40;;;0.57;;
61642;SDS011;47551;52.506;4.678;2024-01-15T01:30:49;5.25;;;0.82;;
61642;SDS011;47551;52.506;4.678;2024-01-15T01:31:10;2.93;;;0.50;;
61642;SDS011;47551;52.506;4.678;2024-01-15T01:31:30;4.17;;;0.70;;
61642;SDS011;47551;52.506;4.678;2024-01-15T01:31:50;4.00;;;0.50;;
61642;SDS011;47551;52.506;4.678;2024-01-15T01:32:10;3.83;;;0.70;;
61642;SDS011;47551;52.506;4.678;2024-01-15T01:32:30;4.57;;;0.70;;
61642;SDS011;47551;52.506;4.678;2024-01-15T01:32:50;4.57;;;0.60;;
61642;SDS011;47551;52.506;4.678;2024-01-15T01:33:11;5.78;;;0.60;;
61642;SDS011;47551;52.506;4.678;2024-01-15T01:33:31;6.87;;;0.90;;
61642;SDS011;47551;52.506;4.678;2024-01-15T01:33:57;5.93;;;0.77;;
61642;SDS011;47551;52.506;4.678;2024-01-15T01:34:17;5.03;;;0.67;;
61642;SDS011;47551;52.506;4.678;2024-01-15T01:34:40;5.57;;;0.73;;
61642;SDS011;47551;52.506;4.678;2024-01-15T01:35:03;4.25;;;0.55;;
61642;SDS011;47551;52.506;4.678;2024-01-15T01:35:24;4.60;;;0.70;;
61642;SDS011;47551;52.506;4.678;2024-01-15T01:35:44;3.58;;;0.52;;
61642;SDS011;47551;52.506;4.678;2024-01-15T01:36:08;4.97;;;0.70;;
61642;SDS011;47551;52.506;4.678;2024-01-15T01:36:31;4.65;;;0.80;;
61642;SDS011;47551;52.506;4.678;2024-01-15T01:36:51;5.85;;;0.70;;
61642;SDS011;47551;52.506;4.678;2024-01-15T01:37:11;6.17;;;0.70;;
61642;SDS011;47551;52.506;4.678;2024-01-15T01:37:34;3.53;;;0.52;;
61642;SDS011;47551;52.506;4.678;2024-01-15T01:37:54;5.40;;;0.50;;
61642;SDS011;47551;52.506;4.678;2024-01-15T01:38:15;6.75;;;0.80;;
61642;SDS011;47551;52.506;4.678;2024-01-15T01:38:36;4.80;;;0.73;;
61642;SDS011;47551;52.506;4.678;2024-01-15T01:38:56;4.28;;;0.60;;
61642;SDS011;47551;52.506;4.678;2024-01-15T01:39:16;4.57;;;0.80;;
61642;SDS011;47551;52.506;4.678;2024-01-15T01:39:45;4.63;;;0.63;;
61642;SDS011;47551;52.506;4.678;2024-01-15T01:40:06;5.30;;;0.63;;
61642;SDS011;47551;52.506;4.678;2024-01-15T01:40:26;6.50;;;0.90;;
61642;SDS011;47551;52.506;4.678;2024-01-15T01:40:49;6.05;;;0.70;;
61642;SDS011;47551;52.506;4.678;2024-01-15T01:41:10;6.17;;;0.80;;
61642;SDS011;47551;52.506;4.678;2024-01-15T01:41:30;8.17;;;1.00;;
61642;SDS011;47551;52.506;4.678;2024-01-15T01:41:50;8.48;;;1.10;;
61642;SDS011;47551;52.506;4.678;2024-01-15T01:42:10;8.00;;;1.00;;
61642;SDS011;47551;52.506;4.678;2024-01-15T01:42:33;7.93;;;1.00;;
61642;SDS011;47551;52.506;4.678;2024-01-15T01:42:54;6.47;;;0.80;;
61642;SDS011;47551;52.506;4.678;2024-01-15T01:43:14;5.13;;;0.70;;
61642;SDS011;47551;52.506;4.678;2024-01-15T01:43:34;6.23;;;0.93;;
61642;SDS011;47551;52.506;4.678;2024-01-15T01:43:54;5.13;;;0.80;;
61642;SDS011;47551;52.506;4.678;2024-01-15T01:44:15;4.43;;;0.88;;
61642;SDS011;47551;52.506;4.678;2024-01-15T01:44:35;5.03;;;0.93;;
61642;SDS011;47551;52.506;4.678;2024-01-15T01:44:55;4.90;;;0.80;;
61642;SDS011;47551;52.506;4.678;2024-01-15T01:45:15;6.72;;;0.80;;
61642;SDS011;47551;52.506;4.678;2024-01-15T01:45:36;8.23;;;1.10;;
61642;SDS011;47551;52.506;4.678;2024-01-15T01:45:56;6.07;;;0.80;;
61642;SDS011;47551;52.506;4.678;2024-01-15T01:46:16;4.30;;;0.77;;
61642;SDS011;47551;52.506;4.678;2024-01-15T01:46:37;4.93;;;0.80;;
61642;SDS011;47551;52.506;4.678;2024-01-15T01:47:00;4.97;;;0.80;;
61642;SDS011;47551;52.506;4.678;2024-01-15T01:47:21;5.70;;;0.80;;
61642;SDS011;47551;52.506;4.678;2024-01-15T01:47:41;5.80;;;1.00;;
61642;SDS011;47551;52.506;4.678;2024-01-15T01:48:01;6.67;;;1.13;;
61642;SDS011;47551;52.506;4.678;2024-01-15T01:48:22;5.60;;;0.97;;
61642;SDS011;47551;52.506;4.678;2024-01-15T01:48:42;7.03;;;0.90;;
61642;SDS011;47551;52.506;4.678;2024-01-15T01:49:03;9.90;;;1.10;;
61642;SDS011;47551;52.506;4.678;2024-01-15T01:49:25;7.55;;;1.00;;
61642;SDS011;47551;52.506;4.678;2024-01-15T01:49:46;5.60;;;1.00;;
61642;SDS011;47551;52.506;4.678;2024-01-15T01:50:06;5.63;;;0.97;;
61642;SDS011;47551;52.506;4.678;2024-01-15T01:50:27;7.68;;;1.10;;
61642;SDS011;47551;52.506;4.678;2024-01-15T01:50:48;8.10;;;1.00;;
61642;SDS011;47551;52.506;4.678;2024-01-15T01:51:09;7.70;;;1.10;;
61642;SDS011;47551;52.506;4.678;2024-01-15T01:51:29;7.80;;;1.38;;
61642;SDS011;47551;52.506;4.678;2024-01-15T01:51:49;8.30;;;1.30;;
61642;SDS011;47551;52.506;4.678;2024-01-15T01:52:10;7.63;;;1.00;;
61642;SDS011;47551;52.506;4.678;2024-01-15T01:52:30;6.53;;;1.00;;
61642;SDS011;47551;52.506;4.678;2024-01-15T01:52:51;9.43;;;1.20;;
61642;SDS011;47551;52.506;4.678;2024-01-15T01:53:11;8.30;;;1.00;;
61642;SDS011;47551;52.506;4.678;2024-01-15T01:53:32;7.47;;;1.20;;
61642;SDS011;47551;52.506;4.678;2024-01-15T01:53:52;7.38;;;1.17;;
61642;SDS011;47551;52.506;4.678;2024-01-15T01:54:12;8.20;;;1.30;;
61642;SDS011;47551;52.506;4.678;2024-01-15T01:54:33;8.02;;;1.40;;
61642;SDS011;47551;52.506;4.678;2024-01-15T01:54:54;8.65;;;1.50;;
61642;SDS011;47551;52.506;4.678;2024-01-15T01:55:14;7.23;;;1.10;;
61642;SDS011;47551;52.506;4.678;2024-01-15T01:55:35;7.43;;;1.20;;
61642;SDS011;47551;52.506;4.678;2024-01-15T01:55:56;7.38;;;1.23;;
61642;SDS011;47551;52.506;4.678;2024-01-15T01:56:17;7.05;;;1.00;;
61642;SDS011;47551;52.506;4.678;2024-01-15T01:56:37;8.20;;;1.00;;
61642;SDS011;47551;52.506;4.678;2024-01-15T01:56:58;9.30;;;1.10;;
61642;SDS011;47551;52.506;4.678;2024-01-15T01:57:18;8.18;;;1.10;;
61642;SDS011;47551;52.506;4.678;2024-01-15T01:57:39;7.10;;;1.20;;
61642;SDS011;47551;52.506;4.678;2024-01-15T01:58:00;7.40;;;1.20;;
61642;SDS011;47551;52.506;4.678;2024-01-15T01:58:21;7.57;;;1.00;;
61642;SDS011;47551;52.506;4.678;2024-01-15T01:58:41;7.80;;;1.08;;
61642;SDS011;47551;52.506;4.678;2024-01-15T01:59:02;8.43;;;1.50;;
61642;SDS011;47551;52.506;4.678;2024-01-15T01:59:25;7.70;;;1.35;;
61642;SDS011;47551;52.506;4.678;2024-01-15T01:59:46;9.05;;;1.10;;
61642;SDS011;47551;52.506;4.678;2024-01-15T02:00:07;9.18;;;1.23;;
61642;SDS011;47551;52.506;4.678;2024-01-15T02:00:27;11.97;;;1.60;;
61642;SDS011;47551;52.506;4.678;2024-01-15T02:00:48;11.03;;;1.47;;
61642;SDS011;47551;52.506;4.678;2024-01-15T02:01:09;9.27;;;1.40;;
61642;SDS011;47551;52.506;4.678;2024-01-15T02:01:31;8.40;;;1.40;;
61642;SDS011;47551;52.506;4.678;2024-01-15T02:01:51;7.47;;;1.00;;
61642;SDS011;47551;52.506;4.678;2024-01-15T02:02:12;8.13;;;1.10;;
61642;SDS011;47551;52.506;4.678;2024-01-15T02:02:33;7.73;;;1.20;;
61642;SDS011;47551;52.506;4.678;2024-01-15T02:02:53;7.03;;;1.20;;
61642;SDS011;47551;52.506;4.678;2024-01-15T02:03:13;7.80;;;1.30;;
61642;SDS011;47551;52.506;4.678;2024-01-15T02:03:34;9.70;;;1.30;;
61642;SDS011;47551;52.506;4.678;2024-01-15T02:03:54;10.80;;;1.40;;
61642;SDS011;47551;52.506;4.678;2024-01-15T02:04:16;8.68;;;1.20;;
61642;SDS011;47551;52.506;4.678;2024-01-15T02:04:37;8.00;;;1.40;;
61642;SDS011;47551;52.506;4.678;2024-01-15T02:04:58;10.88;;;1.40;;
61642;SDS011;47551;52.506;4.678;2024-01-15T02:05:18;9.53;;;1.43;;
61642;SDS011;47551;52.506;4.678;2024-01-15T02:05:39;9.13;;;1.70;;
61642;SDS011;47551;52.506;4.678;2024-01-15T02:06:00;9.10;;;1.52;;
61642;SDS011;47551;52.506;4.678;2024-01-15T02:06:20;10.20;;;1.63;;